Time;durP1;ratioP1;P1;durP2;ratioP2;P2;SDS_P1;SDS_P2;PMS_P1;PMS_P2;Temp;Humidity;BMP_temperature;BMP_pressure;BME280_temperature;BME280_humidity;BME280_pressure;Samples;Min_cycle;Max_cycle;Signal;HPM_P1;HPM_P2
2021/07/01 00:00:43;;;;;;;;;;;;;;;-148.22;100.00;58358.63;5015907;28;1304;-79
2021/07/01 00:03:08;;;;;;;;;;;;;;;-148.22;100.00;58358.63;5013930;28;1956;-79
2021/07/01 00:05:34;;;;;;;;;;;;;;;-148.22;100.00;58358.63;5014552;28;1171;-79
2021/07/01 00:08:26;;;;;;;;;;;;;;;-148.22;100.00;58358.63;5014753;28;1388;-79
2021/07/01 00:11:17;;;;;;;;;;;;;;;-148.22;100.00;58358.63;4997431;28;1339;-79
2021/07/01 00:13:44;;;;;;;;;;;;;;;-148.22;100.00;58358.63;5013996;28;858;-79
2021/07/01 00:16:09;;;;;;;;;;;;;;;-148.22;100.00;58358.63;4997280;28;1371;-78
2021/07/01 00:18:44;;;;;;;;;;;;;;;-148.22;100.00;58358.63;5013664;28;772;-79
2021/07/01 00:21:22;;;;;;;;;;;;;;;-148.22;100.00;58358.63;5013770;28;1296;-79
2021/07/01 00:24:04;;;;;;;;;;;;;;;-148.22;100.00;58358.63;4997258;28;1911;-79
2021/07/01 00:26:31;;;;;;;;;;;;;;;-148.22;100.00;58358.63;5013598;28;1263;-79
2021/07/01 00:29:08;;;;;;;;;;;;;;;-148.22;100.00;58358.63;5012495;28;1196;-79
2021/07/01 00:31:34;;;;;;;;;;;;;;;-148.22;100.00;58358.63;5012877;28;1137;-79
2021/07/01 00:34:09;;;;;;;;;;;;;;;-148.22;100.00;58358.63;5013648;28;1209;-79
2021/07/01 00:36:35;;;;;;;;;;;;;;;-148.22;100.00;58358.63;5013799;28;1217;-79
2021/07/01 00:39:04;;;;;;;;;;;;;;;-148.22;100.00;58358.63;5013514;28;1251;-80
2021/07/01 00:41:53;;;;;;;;;;;;;;;-148.22;100.00;58358.63;5013586;28;1184;-80
2021/07/01 00:44:43;;;;;;;;;;;;;;;-148.22;100.00;58358.63;4997099;28;1894;-79
2021/07/01 00:47:09;;;;;;;;;;;;;;;-148.22;100.00;58358.63;5003700;28;1304;-79
2021/07/01 00:49:43;;;;;;;;;;;;;;;-148.22;100.00;58358.63;5017974;28;1501;-79
2021/07/01 00:52:40;;;;;;;;;;;;;;;-148.22;100.00;58358.63;5019275;28;803;-79
2021/07/01 00:55:11;;;;;;;;;;;;;;;-148.22;100.00;58358.63;5018046;28;1171;-79
2021/07/01 00:57:42;;;;;;;;;;;;;;;-148.22;100.00;58358.63;5018017;28;1238;-79
2021/07/01 01:03:05;;;;;;;;;;;;;;;-148.22;100.00;58358.63;5035647;28;1939;-79
2021/07/01 01:05:30;;;;;;;;;;;;;;;-148.22;100.00;58358.63;5036674;28;1298;-79
2021/07/01 01:07:58;;;;;;;;;;;;;;;-148.22;100.00;58358.63;5036648;28;932;-79
2021/07/01 01:10:25;;;;;;;;;;;;;;;-148.22;100.00;58358.63;5036564;28;906;-79
2021/07/01 01:13:03;;;;;;;;;;;;;;;-148.22;100.00;58358.63;5036602;28;1152;-79
2021/07/01 01:15:44;;;;;;;;;;;;;;;-148.22;100.00;58358.63;5036527;28;1271;-79
2021/07/01 01:18:11;;;;;;;;;;;;;;;-148.22;100.00;58358.63;5036288;28;975;-79
2021/07/01 01:20:52;;;;;;;;;;;;;;;-148.22;100.00;58358.63;5036561;28;1054;-79
2021/07/01 01:23:18;;;;;;;;;;;;;;;-148.22;100.00;58358.63;5036555;28;1914;-78
2021/07/01 01:25:56;;;;;;;;;;;;;;;-148.22;100.00;58358.63;5036401;28;1287;-78
2021/07/01 01:28:22;;;;;;;;;;;;;;;-148.22;100.00;58358.63;5036590;28;942;-78
2021/07/01 01:30:49;;;;;;;;;;;;;;;-148.22;100.00;58358.63;5036281;28;886;-79
2021/07/01 01:33:15;;;;;;;;;;;;;;;-148.22;100.00;58358.63;5036374;28;919;-78
2021/07/01 01:35:41;;;;;;;;;;;;;;;-148.22;100.00;58358.63;5036435;28;831;-79
2021/07/01 01:38:23;;;;;;;;;;;;;;;-148.22;100.00;58358.63;5036378;28;767;-78
2021/07/01 01:40:56;;;;;;;;;;;;;;;-148.22;100.00;58358.63;5017080;28;1003;-78
2021/07/01 01:43:22;;;;;;;;;;;;;;;-148.22;100.00;58358.63;5017542;28;1939;-79
2021/07/01 01:45:53;;;;;;;;;;;;;;;-148.22;100.00;58358.63;5018442;28;768;-79
2021/07/01 01:48:20;;;;;;;;;;;;;;;-148.22;100.00;58358.63;5018423;28;807;-79
2021/07/01 01:50:51;;;;;;;;;;;;;;;-148.22;100.00;58358.63;5018261;28;930;-78
2021/07/01 01:53:18;;;;;;;;;;;;;;;-148.22;100.00;58358.63;5018088;28;989;-78
2021/07/01 01:56:03;;;;;;;;;;;;;;;-148.22;100.00;58358.63;5016511;28;1178;-78
2021/07/01 01:58:41;;;;;;;;;;;;;;;-148.22;100.00;58358.63;5017994;28;1190;-78
2021/07/01 02:01:09;;;;;;;;;;;;;;;-148.22;100.00;58358.63;5017934;28;1220;-79
2021/07/01 02:03:34;;;;;;;;;;;;;;;-148.22;100.00;58358.63;5016485;28;1898;-78
2021/07/01 02:05:59;;;;;;;;;;;;;;;-148.22;100.00;58358.63;5017861;28;1030;-78
2021/07/01 02:08:33;;;;;;;;;;;;;;;-148.22;100.00;58358.63;5016631;28;1285;-78
2021/07/01 02:10:58;;;;;;;;;;;;;;;-148.22;100.00;58358.63;5017650;28;818;-78
2021/07/01 02:13:57;;;;;;;;;;;;;;;-148.22;100.00;58358.63;5017776;28;970;-78
2021/07/01 02:16:23;;;;;;;;;;;;;;;-148.22;100.00;58358.63;4999440;28;958;-78
2021/07/01 02:18:51;;;;;;;;;;;;;;;-148.22;100.00;58358.63;5015603;28;954;-78
2021/07/01 02:21:25;;;;;;;;;;;;;;;-148.22;100.00;58358.63;5015844;28;776;-78
2021/07/01 02:23:51;;;;;;;;;;;;;;;-148.22;100.00;58358.63;5015415;28;1902;-78
2021/07/01 02:26:33;;;;;;;;;;;;;;;-148.22;100.00;58358.63;5015547;28;932;-78
2021/07/01 02:29:00;;;;;;;;;;;;;;;-148.22;100.00;58358.63;5015361;28;962;-78
2021/07/01 02:31:35;;;;;;;;;;;;;;;-148.22;100.00;58358.63;5015373;28;1057;-78
2021/07/01 02:34:27;;;;;;;;;;;;;;;-148.22;100.00;58358.63;5015465;28;927;-78
2021/07/01 02:36:55;;;;;;;;;;;;;;;-148.22;100.00;58358.63;5015631;28;839;-78
2021/07/01 02:39:35;;;;;;;;;;;;;;;-148.22;100.00;58358.63;4998828;28;1123;-78
2021/07/01 02:42:03;;;;;;;;;;;;;;;-148.22;100.00;58358.63;5015260;28;824;-78
2021/07/01 02:44:30;;;;;;;;;;;;;;;-148.22;100.00;58358.63;5014976;28;1887;-78
2021/07/01 02:47:09;;;;;;;;;;;;;;;-148.22;100.00;58358.63;5015058;28;803;-78
2021/07/01 02:49:36;;;;;;;;;;;;;;;-148.22;100.00;58358.63;4998628;28;1251;-78
2021/07/01 02:52:02;;;;;;;;;;;;;;;-148.22;100.00;58358.63;5016259;28;943;-78
2021/07/01 02:54:44;;;;;;;;;;;;;;;-148.22;100.00;58358.63;5016912;28;879;-78
2021/07/01 02:57:21;;;;;;;;;;;;;;;-148.22;100.00;58358.63;5015721;28;887;-78
2021/07/01 03:00:19;;;;;;;;;;;;;;;-148.22;100.00;58358.63;5016942;28;819;-79
2021/07/01 03:02:45;;;;;;;;;;;;;;;-148.22;100.00;58358.63;5014684;28;1889;-78
2021/07/01 03:05:11;;;;;;;;;;;;;;;-148.22;100.00;58358.63;5014591;28;1182;-77
2021/07/01 03:07:38;;;;;;;;;;;;;;;-148.22;100.00;58358.63;5014101;28;935;-78
2021/07/01 03:10:06;;;;;;;;;;;;;;;-148.22;100.00;58358.63;5015039;28;839;-78
2021/07/01 03:12:43;;;;;;;;;;;;;;;-148.22;100.00;58358.63;5014679;28;947;-78
2021/07/01 03:15:10;;;;;;;;;;;;;;;-148.22;100.00;58358.63;5014909;28;1270;-78
2021/07/01 03:17:48;;;;;;;;;;;;;;;-148.22;100.00;58358.63;5014455;28;1206;-78
2021/07/01 03:20:15;;;;;;;;;;;;;;;-148.22;100.00;58358.63;4997876;28;1321;-78
2021/07/01 03:22:46;;;;;;;;;;;;;;;-148.22;100.00;58358.63;5014470;28;1977;-78
2021/07/01 03:25:22;;;;;;;;;;;;;;;-148.22;100.00;58358.63;5014744;28;1031;-79
2021/07/01 03:27:59;;;;;;;;;;;;;;;-148.22;100.00;58358.63;4998101;28;1196;-78
2021/07/01 03:30:25;;;;;;;;;;;;;;;-148.22;100.00;58358.63;5014435;28;851;-78
2021/07/01 03:32:50;;;;;;;;;;;;;;;-148.22;100.00;58358.63;4997853;28;951;-78
2021/07/01 03:35:17;;;;;;;;;;;;;;;-148.22;100.00;58358.63;5014368;28;800;-78
2021/07/01 03:37:55;;;;;;;;;;;;;;;-148.22;100.00;58358.63;5009825;28;1065;-78
2021/07/01 03:40:21;;;;;;;;;;;;;;;-148.22;100.00;58358.63;4996626;28;788;-78
2021/07/01 03:42:52;;;;;;;;;;;;;;;-148.22;100.00;58358.63;4996589;28;1894;-78
2021/07/01 03:45:28;;;;;;;;;;;;;;;-148.22;100.00;58358.63;4996707;28;867;-80
2021/07/01 03:48:26;;;;;;;;;;;;;;;-148.22;100.00;58358.63;4996766;28;1052;-79
2021/07/01 03:51:08;;;;;;;;;;;;;;;-148.22;100.00;58358.63;4994778;28;1189;-79
2021/07/01 03:53:33;;;;;;;;;;;;;;;-148.22;100.00;58358.63;4994524;28;1337;-79
2021/07/01 03:55:58;;;;;;;;;;;;;;;-148.22;100.00;58358.63;4994561;28;1014;-79
2021/07/01 03:58:26;;;;;;;;;;;;;;;-148.22;100.00;58358.63;4994438;28;847;-79
2021/07/01 04:01:26;;;;;;;;;;;;;;;-148.22;100.00;58358.63;4994434;28;1296;-78
2021/07/01 04:03:51;;;;;;;;;;;;;;;-148.22;100.00;58358.63;4948641;29;1911;-79
2021/07/01 04:06:17;;;;;;;;;;;;;;;-148.22;100.00;58358.63;4955556;29;999;-78
2021/07/01 04:08:43;;;;;;;;;;;;;;;-148.22;100.00;58358.63;4955486;29;1042;-79
2021/07/01 04:11:26;;;;;;;;;;;;;;;-148.22;100.00;58358.63;4955290;29;1249;-79
2021/07/01 04:13:53;;;;;;;;;;;;;;;-148.22;100.00;58358.63;4955478;29;1248;-78
2021/07/01 04:16:32;;;;;;;;;;;;;;;-148.22;100.00;58358.63;4955355;29;1157;-78
2021/07/01 04:18:58;;;;;;;;;;;;;;;-148.22;100.00;58358.63;4955853;28;978;-79
2021/07/01 04:21:32;;;;;;;;;;;;;;;-148.22;100.00;58358.63;4959314;29;1244;-78
2021/07/01 04:23:59;;;;;;;;;;;;;;;-148.22;100.00;58358.63;4959365;29;1973;-78
2021/07/01 04:26:25;;;;;;;;;;;;;;;-148.22;100.00;58358.63;4959388;29;1153;-78
2021/07/01 04:28:52;;;;;;;;;;;;;;;-148.22;100.00;58358.63;4959194;29;1323;-78
2021/07/01 04:31:19;;;;;;;;;;;;;;;-148.22;100.00;58358.63;4959303;29;911;-78
2021/07/01 04:33:47;;;;;;;;;;;;;;;-148.22;100.00;58358.63;4959172;28;1173;-78
2021/07/01 04:36:13;;;;;;;;;;;;;;;-148.22;100.00;58358.63;4959084;29;1212;-78
2021/07/01 04:38:44;;;;;;;;;;;;;;;-148.22;100.00;58358.63;4992408;28;1511;-78
2021/07/01 04:41:11;;;;;;;;;;;;;;;-148.22;100.00;58358.63;4998604;28;1223;-78
2021/07/01 04:44:04;;;;;;;;;;;;;;;-148.22;100.00;58358.63;5017860;28;1898;-78
2021/07/01 04:46:42;;;;;;;;;;;;;;;-148.22;100.00;58358.63;5018102;28;819;-78
2021/07/01 04:49:07;;;;;;;;;;;;;;;-148.22;100.00;58358.63;5019197;28;926;-78
2021/07/01 04:51:46;;;;;;;;;;;;;;;-148.22;100.00;58358.63;5017945;28;1144;-79
2021/07/01 04:54:27;;;;;;;;;;;;;;;-148.22;100.00;58358.63;5019332;28;958;-79
2021/07/01 04:56:53;;;;;;;;;;;;;;;-148.22;100.00;58358.63;5017946;28;1248;-79
2021/07/01 04:59:29;;;;;;;;;;;;;;;-148.22;100.00;58358.63;5017965;28;1348;-79
2021/07/01 05:02:13;;;;;;;;;;;;;;;-148.22;100.00;58358.63;5017886;28;1292;-78
2021/07/01 05:04:38;;;;;;;;;;;;;;;-148.22;100.00;58358.63;5016873;28;1965;-78
2021/07/01 05:07:03;;;;;;;;;;;;;;;-148.22;100.00;58358.63;5016104;28;938;-78
2021/07/01 05:12:44;;;;;;;;;;;;;;;-148.22;100.00;58358.63;5018046;28;880;-79
2021/07/01 05:15:10;;;;;;;;;;;;;;;-148.22;100.00;58358.63;5017791;28;1258;-78
2021/07/01 05:17:37;;;;;;;;;;;;;;;-148.22;100.00;58358.63;5017647;28;1159;-78
2021/07/01 05:20:05;;;;;;;;;;;;;;;-148.22;100.00;58358.63;5018951;28;981;-79
2021/07/01 05:22:36;;;;;;;;;;;;;;;-148.22;100.00;58358.63;5017420;28;1148;-78
2021/07/01 05:25:08;;;;;;;;;;;;;;;-148.22;100.00;58358.63;5017494;28;1347;-79
2021/07/01 05:27:52;;;;;;;;;;;;;;;-148.22;100.00;58358.63;5017393;28;1207;-81
2021/07/01 05:30:26;;;;;;;;;;;;;;;-148.22;100.00;58358.63;5017106;28;1181;-81
2021/07/01 05:33:01;;;;;;;;;;;;;;;-148.22;100.00;58358.63;5033562;28;1450;-81
2021/07/01 05:35:37;;;;;;;;;;;;;;;-148.22;100.00;58358.63;5018500;28;958;-80
2021/07/01 05:38:11;;;;;;;;;;;;;;;-148.22;100.00;58358.63;5017315;28;1184;-81
2021/07/01 05:40:44;;;;;;;;;;;;;;;-148.22;100.00;58358.63;5017211;28;1194;-81
2021/07/01 05:43:15;;;;;;;;;;;;;;;-148.22;100.00;58358.63;5017072;28;1956;-81
2021/07/01 05:45:40;;;;;;;;;;;;;;;-148.22;100.00;58358.63;5017125;28;1333;-81
2021/07/01 05:48:08;;;;;;;;;;;;;;;-148.22;100.00;58358.63;5018190;28;815;-81
2021/07/01 05:50:41;;;;;;;;;;;;;;;-148.22;100.00;58358.63;5015955;28;1167;-80
2021/07/01 05:53:10;;;;;;;;;;;;;;;-148.22;100.00;58358.63;5015697;28;1163;-80
2021/07/01 05:55:36;;;;;;;;;;;;;;;-148.22;100.00;58358.63;5012864;28;1202;-80
2021/07/01 05:58:03;;;;;;;;;;;;;;;-148.22;100.00;58358.63;4997300;28;1172;-80
2021/07/01 06:00:30;;;;;;;;;;;;;;;-148.22;100.00;58358.63;4997148;28;1307;-81
2021/07/01 06:03:06;;;;;;;;;;;;;;;-148.22;100.00;58358.63;4997104;28;1894;-81
2021/07/01 06:05:31;;;;;;;;;;;;;;;-148.22;100.00;58358.63;4998211;28;1125;-81
2021/07/01 06:08:08;;;;;;;;;;;;;;;-148.22;100.00;58358.63;4998991;28;1351;-81
2021/07/01 06:10:40;;;;;;;;;;;;;;;-148.22;100.00;58358.63;5016587;28;1191;-80
2021/07/01 06:13:22;;;;;;;;;;;;;;;-148.22;100.00;58358.63;5016082;28;1215;-81
2021/07/01 06:15:56;;;;;;;;;;;;;;;-148.22;100.00;58358.63;5032813;28;1304;-80
2021/07/01 06:18:27;;;;;;;;;;;;;;;-148.22;100.00;58358.63;5032806;28;1283;-80
2021/07/01 06:20:53;;;;;;;;;;;;;;;-148.22;100.00;58358.63;5032890;28;1205;-81
2021/07/01 06:23:20;;;;;;;;;;;;;;;-148.22;100.00;58358.63;5016211;28;1906;-81
2021/07/01 06:26:00;;;;;;;;;;;;;;;-148.22;100.00;58358.63;5017127;28;1442;-82
2021/07/01 06:28:34;;;;;;;;;;;;;;;-148.22;100.00;58358.63;4998032;28;795;-81
2021/07/01 06:31:05;;;;;;;;;;;;;;;-148.22;100.00;58358.63;4996555;28;1262;-81
2021/07/01 06:33:42;;;;;;;;;;;;;;;-148.22;100.00;58358.63;4996552;28;1433;-81
2021/07/01 06:36:40;;;;;;;;;;;;;;;-148.22;100.00;58358.63;5005233;28;1180;-82
2021/07/01 06:39:07;;;;;;;;;;;;;;;-148.22;100.00;58358.63;5015064;28;1266;-80
2021/07/01 06:41:35;;;;;;;;;;;;;;;-148.22;100.00;58358.63;5015242;28;1056;-80
2021/07/01 06:44:02;;;;;;;;;;;;;;;-148.22;100.00;58358.63;5016190;28;1954;-81
2021/07/01 06:46:40;;;;;;;;;;;;;;;-148.22;100.00;58358.63;5008858;28;1425;-83
2021/07/01 06:49:08;;;;;;;;;;;;;;;-148.22;100.00;58358.63;5006451;28;1293;-81
2021/07/01 06:51:43;;;;;;;;;;;;;;;-148.22;100.00;58358.63;5014999;28;1331;-81
2021/07/01 06:54:17;;;;;;;;;;;;;;;-148.22;100.00;58358.63;5023916;28;1473;-82
2021/07/01 06:57:15;;;;;;;;;;;;;;;-148.22;100.00;58358.63;5034464;28;1499;-81
2021/07/01 06:59:41;;;;;;;;;;;;;;;-148.22;100.00;58358.63;4956216;28;1565;-81
2021/07/01 07:02:08;;;;;;;;;;;;;;;-148.22;100.00;58358.63;4956422;29;1600;-81
2021/07/01 07:04:33;;;;;;;;;;;;;;;-148.22;100.00;58358.63;4956004;29;1891;-82
2021/07/01 07:06:59;;;;;;;;;;;;;;;-148.22;100.00;58358.63;4959053;28;1315;-82
2021/07/01 07:09:25;;;;;;;;;;;;;;;-148.22;100.00;58358.63;4975517;28;1288;-82
2021/07/01 07:11:51;;;;;;;;;;;;;;;-148.22;100.00;58358.63;4975512;28;1177;-82
2021/07/01 07:14:18;;;;;;;;;;;;;;;-148.22;100.00;58358.63;4962663;28;947;-82
2021/07/01 07:16:45;;;;;;;;;;;;;;;-148.22;100.00;58358.63;4936883;29;1229;-82
2021/07/01 07:19:12;;;;;;;;;;;;;;;-148.22;100.00;58358.63;4936826;29;1195;-83
2021/07/01 07:21:44;;;;;;;;;;;;;;;-148.22;100.00;58358.63;4936863;29;1307;-82
2021/07/01 07:24:09;;;;;;;;;;;;;;;-148.22;100.00;58358.63;4936824;29;1967;-81
2021/07/01 07:26:37;;;;;;;;;;;;;;;-148.22;100.00;58358.63;4936916;29;1224;-81
2021/07/01 07:29:07;;;;;;;;;;;;;;;-148.22;100.00;58358.63;4937061;29;1085;-81
2021/07/01 07:31:33;;;;;;;;;;;;;;;-148.22;100.00;58358.63;4935675;29;1065;-81
2021/07/01 07:34:04;;;;;;;;;;;;;;;-148.22;100.00;58358.63;4925463;29;1363;-81
2021/07/01 07:36:33;;;;;;;;;;;;;;;-148.22;100.00;58358.63;4991934;28;1172;-81
2021/07/01 07:39:01;;;;;;;;;;;;;;;-148.22;100.00;58358.63;4995953;28;1041;-82
2021/07/01 07:41:27;;;;;;;;;;;;;;;-148.22;100.00;58358.63;4996761;28;982;-82
2021/07/01 07:44:08;;;;;;;;;;;;;;;-148.22;100.00;58358.63;4996519;28;1874;-81
2021/07/01 07:46:50;;;;;;;;;;;;;;;-148.22;100.00;58358.63;4995231;28;1168;-80
2021/07/01 07:49:25;;;;;;;;;;;;;;;-148.22;100.00;58358.63;4995077;28;1275;-80
2021/07/01 07:52:07;;;;;;;;;;;;;;;-148.22;100.00;58358.63;4992896;28;1336;-79
2021/07/01 07:55:00;;;;;;;;;;;;;;;-148.22;100.00;58358.63;4975618;28;1209;-80
2021/07/01 07:57:30;;;;;;;;;;;;;;;-148.22;100.00;58358.63;4984269;28;1177;-80
2021/07/01 07:59:59;;;;;;;;;;;;;;;-148.22;100.00;58358.63;4975646;28;1196;-81
2021/07/01 08:02:58;;;;;;;;;;;;;;;-148.22;100.00;58358.63;4982121;28;2115;-80
2021/07/01 08:05:27;;;;;;;;;;;;;;;-148.22;100.00;58358.63;5007785;28;1195;-81
2021/07/01 08:07:54;;;;;;;;;;;;;;;-148.22;100.00;58358.63;5015745;28;886;-80
2021/07/01 08:10:24;;;;;;;;;;;;;;;-148.22;100.00;58358.63;5014334;28;1280;-80
2021/07/01 08:12:53;;;;;;;;;;;;;;;-148.22;100.00;58358.63;5014109;28;1765;-81
2021/07/01 08:15:21;;;;;;;;;;;;;;;-148.22;100.00;58358.63;4998707;28;1619;-80
2021/07/01 08:17:53;;;;;;;;;;;;;;;-148.22;100.00;58358.63;4994948;28;1180;-81
2021/07/01 08:20:20;;;;;;;;;;;;;;;-148.22;100.00;58358.63;4994893;28;1192;-80
2021/07/01 08:22:52;;;;;;;;;;;;;;;-148.22;100.00;58358.63;5008669;28;1985;-80
2021/07/01 08:25:25;;;;;;;;;;;;;;;-148.22;100.00;58358.63;5030704;28;1285;-81
2021/07/01 08:27:53;;;;;;;;;;;;;;;-148.22;100.00;58358.63;5014384;28;1203;-80
2021/07/01 08:30:20;;;;;;;;;;;;;;;-148.22;100.00;58358.63;5014405;28;1390;-80
2021/07/01 08:32:47;;;;;;;;;;;;;;;-148.22;100.00;58358.63;5014324;28;1334;-80
2021/07/01 08:35:14;;;;;;;;;;;;;;;-148.22;100.00;58358.63;5015464;28;818;-80
2021/07/01 08:37:54;;;;;;;;;;;;;;;-148.22;100.00;58358.63;5014199;28;1292;-80
2021/07/01 08:40:39;;;;;;;;;;;;;;;-148.22;100.00;58358.63;5015528;28;885;-81
2021/07/01 08:43:08;;;;;;;;;;;;;;;-148.22;100.00;58358.63;5014196;28;1942;-80
2021/07/01 08:45:40;;;;;;;;;;;;;;;-148.22;100.00;58358.63;5003680;28;1625;-81
2021/07/01 08:48:10;;;;;;;;;;;;;;;-148.22;100.00;58358.63;4996124;28;1069;-81
2021/07/01 08:50:50;;;;;;;;;;;;;;;-148.22;100.00;58358.63;4997409;28;1459;-82
2021/07/01 08:53:38;;;;;;;;;;;;;;;-148.22;100.00;58358.63;5006677;28;1546;-80
2021/07/01 08:56:03;;;;;;;;;;;;;;;-148.22;100.00;58358.63;5000145;28;1288;-80
2021/07/01 08:58:31;;;;;;;;;;;;;;;-148.22;100.00;58358.63;4994572;28;1191;-82
2021/07/01 09:01:00;;;;;;;;;;;;;;;-148.22;100.00;58358.63;4994163;28;1271;-85
2021/07/01 09:03:28;;;;;;;;;;;;;;;-148.22;100.00;58358.63;5003939;28;1961;-84
2021/07/01 09:05:54;;;;;;;;;;;;;;;-148.22;100.00;58358.63;5000221;28;1234;-83
2021/07/01 09:08:22;;;;;;;;;;;;;;;-148.22;100.00;58358.63;5006850;28;1271;-82
2021/07/01 09:10:56;;;;;;;;;;;;;;;-148.22;100.00;58358.63;4997918;28;1152;-82
2021/07/01 09:13:28;;;;;;;;;;;;;;;-148.22;100.00;58358.63;4998222;28;1180;-80
2021/07/01 09:15:56;;;;;;;;;;;;;;;-148.22;100.00;58358.63;4997812;28;1277;-79
2021/07/01 09:18:22;;;;;;;;;;;;;;;-148.22;100.00;58358.63;4999018;28;1029;-81
2021/07/01 09:20:51;;;;;;;;;;;;;;;-148.22;100.00;58358.63;5008526;28;1578;-81
2021/07/01 09:23:31;;;;;;;;;;;;;;;-148.22;100.00;58358.63;5004257;28;1914;-80
2021/07/01 09:26:03;;;;;;;;;;;;;;;-148.22;100.00;58358.63;5015716;28;1535;-81
2021/07/01 09:28:37;;;;;;;;;;;;;;;-148.22;100.00;58358.63;5017190;28;1184;-80
2021/07/01 09:31:05;;;;;;;;;;;;;;;-148.22;100.00;58358.63;5011488;28;1411;-80
2021/07/01 09:33:31;;;;;;;;;;;;;;;-148.22;100.00;58358.63;5007682;28;1333;-80
2021/07/01 09:36:00;;;;;;;;;;;;;;;-148.22;100.00;58358.63;5018260;28;1661;-81
2021/07/01 09:38:33;;;;;;;;;;;;;;;-148.22;100.00;58358.63;5020884;28;1203;-80
2021/07/01 09:41:01;;;;;;;;;;;;;;;-148.22;100.00;58358.63;5017165;28;1285;-81
2021/07/01 09:43:34;;;;;;;;;;;;;;;-148.22;100.00;58358.63;5016410;28;1882;-82
2021/07/01 09:46:01;;;;;;;;;;;;;;;-148.22;100.00;58358.63;4997542;28;1276;-82
2021/07/01 09:48:35;;;;;;;;;;;;;;;-148.22;100.00;58358.63;4997654;28;1381;-81
2021/07/01 09:51:05;;;;;;;;;;;;;;;-148.22;100.00;58358.63;5013465;28;1211;-82
2021/07/01 09:53:33;;;;;;;;;;;;;;;-148.22;100.00;58358.63;5031239;28;1143;-82
2021/07/01 09:56:07;;;;;;;;;;;;;;;-148.22;100.00;58358.63;5014818;28;1554;-82
2021/07/01 09:58:36;;;;;;;;;;;;;;;-148.22;100.00;58358.63;5003732;28;1228;-81
2021/07/01 10:01:20;;;;;;;;;;;;;;;-148.22;100.00;58358.63;5016565;28;1231;-82
2021/07/01 10:03:59;;;;;;;;;;;;;;;-148.22;100.00;58358.63;5016504;28;1898;-82
2021/07/01 10:06:25;;;;;;;;;;;;;;;-148.22;100.00;58358.63;5016590;28;1281;-83
2021/07/01 10:08:58;;;;;;;;;;;;;;;-148.22;100.00;58358.63;5009756;28;1294;-81
2021/07/01 10:11:31;;;;;;;;;;;;;;;-148.22;100.00;58358.63;4998974;28;1582;-80
2021/07/01 10:14:01;;;;;;;;;;;;;;;-148.22;100.00;58358.63;5016859;28;1204;-81
2021/07/01 10:16:29;;;;;;;;;;;;;;;-148.22;100.00;58358.63;5016717;28;1192;-83
2021/07/01 10:19:09;;;;;;;;;;;;;;;-148.22;100.00;58358.63;5016634;28;1347;-83
2021/07/01 10:21:38;;;;;;;;;;;;;;;-148.22;100.00;58358.63;4998647;28;1379;-82
2021/07/01 10:24:09;;;;;;;;;;;;;;;-148.22;100.00;58358.63;4999231;28;1910;-81
2021/07/01 10:26:54;;;;;;;;;;;;;;;-148.22;100.00;58358.63;5013919;28;1331;-81
2021/07/01 10:29:20;;;;;;;;;;;;;;;-148.22;100.00;58358.63;5009355;28;1680;-80
2021/07/01 10:31:58;;;;;;;;;;;;;;;-148.22;100.00;58358.63;5012668;28;1076;-79
2021/07/01 10:34:46;;;;;;;;;;;;;;;-148.22;100.00;58358.63;5012821;28;1219;-80
2021/07/01 10:37:20;;;;;;;;;;;;;;;-148.22;100.00;58358.63;5012827;28;1276;-80
2021/07/01 10:40:12;;;;;;;;;;;;;;;-148.22;100.00;58358.63;4997701;28;882;-81
2021/07/01 10:42:57;;;;;;;;;;;;;;;-148.22;100.00;58358.63;4995421;28;1233;-80
2021/07/01 10:45:25;;;;;;;;;;;;;;;-148.22;100.00;58358.63;4995549;28;820;-80
2021/07/01 10:47:54;;;;;;;;;;;;;;;-148.22;100.00;58358.63;4995215;28;1165;-80
2021/07/01 10:50:21;;;;;;;;;;;;;;;-148.22;100.00;58358.63;5010728;28;1253;-80
2021/07/01 10:52:48;;;;;;;;;;;;;;;-148.22;100.00;58358.63;4998464;28;1312;-80
2021/07/01 10:55:38;;;;;;;;;;;;;;;-148.22;100.00;58358.63;4998548;28;1312;-80
2021/07/01 10:58:17;;;;;;;;;;;;;;;-148.22;100.00;58358.63;4998633;28;1216;-80
2021/07/01 11:00:45;;;;;;;;;;;;;;;-148.22;100.00;58358.63;5014905;28;901;-80
2021/07/01 11:03:19;;;;;;;;;;;;;;;-148.22;100.00;58358.63;4998293;28;1890;-80
2021/07/01 11:05:44;;;;;;;;;;;;;;;-148.22;100.00;58358.63;4998199;28;1292;-80
2021/07/01 11:08:46;;;;;;;;;;;;;;;-148.22;100.00;58358.63;4998325;28;1165;-80
2021/07/01 11:11:42;;;;;;;;;;;;;;;-148.22;100.00;58358.63;4921217;29;1232;-80
2021/07/01 11:14:09;;;;;;;;;;;;;;;-148.22;100.00;58358.63;4918029;29;1061;-80
2021/07/01 11:17:00;;;;;;;;;;;;;;;-148.22;100.00;58358.63;4918020;29;1227;-80
2021/07/01 11:19:37;;;;;;;;;;;;;;;-148.22;100.00;58358.63;4909757;29;1257;-80
2021/07/01 11:22:14;;;;;;;;;;;;;;;-148.22;100.00;58358.63;4899131;29;1002;-81
2021/07/01 11:24:48;;;;;;;;;;;;;;;-148.22;100.00;58358.63;4883330;29;1908;-80
2021/07/01 11:27:22;;;;;;;;;;;;;;;-148.22;100.00;58358.63;4883563;29;1297;-81
2021/07/01 11:29:47;;;;;;;;;;;;;;;-148.22;100.00;58358.63;4882798;29;1279;-80
2021/07/01 11:32:24;;;;;;;;;;;;;;;-148.22;100.00;58358.63;4899013;29;1232;-80
2021/07/01 11:34:52;;;;;;;;;;;;;;;-148.22;100.00;58358.63;4899129;29;1261;-81
2021/07/01 11:37:33;;;;;;;;;;;;;;;-148.22;100.00;58358.63;4899064;29;975;-81
2021/07/01 11:40:19;;;;;;;;;;;;;;;-148.22;100.00;58358.63;4899255;29;863;-82
2021/07/01 11:42:45;;;;;;;;;;;;;;;-148.22;100.00;58358.63;4898949;29;1232;-82
2021/07/01 11:45:20;;;;;;;;;;;;;;;-148.22;100.00;58358.63;4921230;28;1946;-81
2021/07/01 11:47:46;;;;;;;;;;;;;;;-148.22;100.00;58358.63;4959083;28;1225;-83
2021/07/01 11:50:26;;;;;;;;;;;;;;;-148.22;100.00;58358.63;4970709;28;1208;-82
2021/07/01 11:52:51;;;;;;;;;;;;;;;-148.22;100.00;58358.63;4995035;28;1293;-81
2021/07/01 11:55:26;;;;;;;;;;;;;;;-148.22;100.00;58358.63;5010455;28;1601;-80
2021/07/01 11:57:53;;;;;;;;;;;;;;;-148.22;100.00;58358.63;5014743;28;1514;-81
2021/07/01 12:00:20;;;;;;;;;;;;;;;-148.22;100.00;58358.63;5015890;28;1228;-81
2021/07/01 12:03:13;;;;;;;;;;;;;;;-148.22;100.00;58358.63;5014608;28;1615;-80
2021/07/01 12:05:40;;;;;;;;;;;;;;;-148.22;100.00;58358.63;5001646;28;1422;-81
2021/07/01 12:08:07;;;;;;;;;;;;;;;-148.22;100.00;58358.63;4997236;28;1287;-83
2021/07/01 12:10:32;;;;;;;;;;;;;;;-148.22;100.00;58358.63;4997152;28;1299;-80
2021/07/01 12:13:23;;;;;;;;;;;;;;;-148.22;100.00;58358.63;4997303;28;1269;-81
2021/07/01 12:16:08;;;;;;;;;;;;;;;-148.22;100.00;58358.63;4993706;28;1187;-81
2021/07/01 12:18:47;;;;;;;;;;;;;;;-148.22;100.00;58358.63;4992325;28;1197;-82
2021/07/01 12:21:14;;;;;;;;;;;;;;;-148.22;100.00;58358.63;4979214;28;1355;-80
2021/07/01 12:23:52;;;;;;;;;;;;;;;-148.22;100.00;58358.63;4958370;28;1910;-80
2021/07/01 12:26:27;;;;;;;;;;;;;;;-148.22;100.00;58358.63;4958090;28;1280;-79
2021/07/01 12:28:52;;;;;;;;;;;;;;;-148.22;100.00;58358.63;4977166;28;1219;-80
2021/07/01 12:31:26;;;;;;;;;;;;;;;-148.22;100.00;58358.63;4960881;28;1388;-80
2021/07/01 12:34:04;;;;;;;;;;;;;;;-148.22;100.00;58358.63;4967896;28;1281;-80
2021/07/01 12:36:44;;;;;;;;;;;;;;;-148.22;100.00;58358.63;4977198;28;1272;-79
2021/07/01 12:39:13;;;;;;;;;;;;;;;-148.22;100.00;58358.63;4974392;28;1009;-78
2021/07/01 12:42:05;;;;;;;;;;;;;;;-148.22;100.00;58358.63;4961251;28;1329;-78
2021/07/01 12:44:32;;;;;;;;;;;;;;;-148.22;100.00;58358.63;4958669;29;1947;-79
2021/07/01 12:50:27;;;;;;;;;;;;;;;-148.22;100.00;58358.63;4932194;29;1180;-80
2021/07/01 12:52:53;;;;;;;;;;;;;;;-148.22;100.00;58358.63;4932062;29;1218;-80
2021/07/01 12:55:22;;;;;;;;;;;;;;;-148.22;100.00;58358.63;4939063;29;1225;-79
2021/07/01 12:57:55;;;;;;;;;;;;;;;-148.22;100.00;58358.63;4939409;29;1380;-79
2021/07/01 13:00:23;;;;;;;;;;;;;;;-148.22;100.00;58358.63;4939342;29;1131;-78
2021/07/01 13:02:58;;;;;;;;;;;;;;;-148.22;100.00;58358.63;4939452;29;886;-78
2021/07/01 13:05:23;;;;;;;;;;;;;;;-148.22;100.00;58358.63;4939257;29;1359;-80